createdAt,value
2022-08-30T00:00:35.952Z,17.26
2022-08-30T00:03:11.927Z,17.26
2022-08-30T00:05:43.067Z,17.26
2022-08-30T00:08:14.488Z,17.23
2022-08-30T00:10:46.092Z,17.18
2022-08-30T00:13:17.330Z,17.20
2022-08-30T00:15:48.677Z,17.19
2022-08-30T00:18:24.587Z,17.19
2022-08-30T00:20:55.998Z,17.15
2022-08-30T00:23:26.804Z,17.09
2022-08-30T00:25:56.735Z,17.07
2022-08-30T00:28:27.007Z,17.01
2022-08-30T00:30:57.525Z,16.97
2022-08-30T00:33:31.345Z,16.92
2022-08-30T00:36:02.417Z,16.90
2022-08-30T00:38:32.648Z,16.89
2022-08-30T00:41:03.011Z,16.85
2022-08-30T00:43:36.843Z,16.82
2022-08-30T00:46:10.467Z,16.77
2022-08-30T00:48:48.505Z,16.76
2022-08-30T00:51:21.279Z,16.75
2022-08-30T00:53:56.087Z,16.75
2022-08-30T00:56:28.479Z,16.75
2022-08-30T00:59:01.170Z,16.75
2022-08-30T01:01:34.051Z,16.74
2022-08-30T01:04:09.989Z,16.74
2022-08-30T01:06:40.681Z,16.72
2022-08-30T01:09:12.269Z,16.73
2022-08-30T01:11:45.063Z,16.72
2022-08-30T01:14:17.336Z,16.71
2022-08-30T01:16:49.051Z,16.74
2022-08-30T01:19:35.075Z,16.72
2022-08-30T01:22:14.772Z,16.73
2022-08-30T01:24:48.035Z,16.71
2022-08-30T01:27:19.088Z,16.69
2022-08-30T01:29:49.950Z,16.67
2022-08-30T01:32:21.436Z,16.66
2022-08-30T01:34:52.614Z,16.67
2022-08-30T01:37:28.273Z,16.70
2022-08-30T01:40:01.133Z,16.68
2022-08-30T01:42:31.829Z,16.63
2022-08-30T01:45:02.168Z,16.59
2022-08-30T01:47:32.631Z,16.58
2022-08-30T01:50:02.936Z,16.58
2022-08-30T01:52:33.240Z,16.56
2022-08-30T01:55:07.585Z,16.55
2022-08-30T01:57:38.017Z,16.52
2022-08-30T02:00:12.154Z,16.54
2022-08-30T02:02:43.247Z,16.55
2022-08-30T02:05:14.759Z,16.54
2022-08-30T02:07:45.077Z,16.50
2022-08-30T02:10:17.938Z,16.48
2022-08-30T02:12:48.232Z,16.46
2022-08-30T02:15:19.146Z,16.43
2022-08-30T02:17:49.198Z,16.36
2022-08-30T02:20:19.719Z,16.36
2022-08-30T02:22:50.097Z,16.36
2022-08-30T02:25:23.086Z,16.38
2022-08-30T02:27:53.334Z,16.37
2022-08-30T02:30:24.109Z,16.33
2022-08-30T02:32:53.998Z,16.28
2022-08-30T02:35:24.256Z,16.28
2022-08-30T02:37:54.514Z,16.25
2022-08-30T02:40:27.855Z,16.23
2022-08-30T02:42:58.632Z,16.24
2022-08-30T02:45:29.237Z,16.24
2022-08-30T02:47:59.419Z,16.23
2022-08-30T02:50:29.701Z,16.22
2022-08-30T02:52:59.972Z,16.15
2022-08-30T02:55:33.359Z,16.13
2022-08-30T02:58:03.575Z,16.10
2022-08-30T03:00:34.491Z,16.09
2022-08-30T03:03:05.331Z,16.05
2022-08-30T03:05:39.729Z,16.01
2022-08-30T03:08:11.524Z,15.95
2022-08-30T03:10:44.412Z,15.92
2022-08-30T03:13:14.823Z,15.89
2022-08-30T03:15:45.255Z,15.88
2022-08-30T03:18:15.382Z,15.86
2022-08-30T03:20:48.348Z,15.86
2022-08-30T03:23:27.578Z,15.87
2022-08-30T03:26:00.320Z,15.84
2022-08-30T03:28:30.671Z,15.85
2022-08-30T03:31:00.837Z,15.86
2022-08-30T03:33:31.300Z,15.84
2022-08-30T03:36:01.648Z,15.81
2022-08-30T03:38:31.876Z,15.75
2022-08-30T03:41:06.389Z,15.71
2022-08-30T03:43:38.486Z,15.70
2022-08-30T03:46:09.423Z,15.68
2022-08-30T03:48:39.694Z,15.65
2022-08-30T03:51:10.159Z,15.65
2022-08-30T03:53:40.346Z,15.65
2022-08-30T03:56:13.304Z,15.63
2022-08-30T03:58:43.528Z,15.62
2022-08-30T04:01:14.320Z,15.57
2022-08-30T04:03:44.543Z,15.53
2022-08-30T04:06:14.919Z,15.54
2022-08-30T04:08:46.166Z,15.53
2022-08-30T04:11:18.985Z,15.48
2022-08-30T04:13:49.694Z,15.47
2022-08-30T04:16:20.142Z,15.46
2022-08-30T04:18:50.468Z,15.45
2022-08-30T04:21:20.906Z,15.41
2022-08-30T04:23:51.147Z,15.41
2022-08-30T04:26:29.238Z,15.39
2022-08-30T04:29:00.320Z,15.38
2022-08-30T04:31:31.218Z,15.39
2022-08-30T04:34:01.217Z,15.40
2022-08-30T04:36:31.430Z,15.44
2022-08-30T04:39:01.612Z,15.46
2022-08-30T04:41:34.494Z,15.45
2022-08-30T04:44:05.857Z,15.43
2022-08-30T04:46:44.772Z,15.49
2022-08-30T04:49:15.122Z,15.52
2022-08-30T04:51:45.304Z,15.50
2022-08-30T04:54:15.559Z,15.49
2022-08-30T04:56:48.343Z,15.55
2022-08-30T04:59:18.534Z,15.56
2022-08-30T05:01:48.975Z,15.57
2022-08-30T05:04:19.157Z,15.64
2022-08-30T05:06:49.303Z,15.65
2022-08-30T05:09:21.460Z,15.68
2022-08-30T05:11:54.285Z,15.73
2022-08-30T05:14:25.113Z,15.80
2022-08-30T05:16:55.021Z,15.92
2022-08-30T05:19:25.218Z,16.08
2022-08-30T05:21:55.366Z,16.17
2022-08-30T05:24:25.536Z,16.26
2022-08-30T05:26:58.362Z,16.35
2022-08-30T05:29:28.675Z,16.40
2022-08-30T05:31:59.219Z,16.43
2022-08-30T05:34:29.602Z,16.50
2022-08-30T05:37:00.334Z,16.57
2022-08-30T05:39:45.064Z,16.65
2022-08-30T05:42:24.607Z,16.72
2022-08-30T05:44:55.069Z,16.75
2022-08-30T05:47:25.903Z,16.73
2022-08-30T05:49:55.847Z,16.77
2022-08-30T05:52:26.197Z,16.87
2022-08-30T05:54:59.674Z,16.96
2022-08-30T05:57:36.228Z,17.06
2022-08-30T06:00:12.666Z,17.12
2022-08-30T06:02:43.369Z,17.21
2022-08-30T06:05:15.069Z,17.24
2022-08-30T06:07:46.667Z,17.34
2022-08-30T06:10:16.889Z,17.41
2022-08-30T06:12:50.164Z,17.58
2022-08-30T06:15:20.624Z,17.75
2022-08-30T06:17:51.038Z,17.89
2022-08-30T06:20:21.583Z,18.01
2022-08-30T06:22:51.775Z,18.16
2022-08-30T06:25:22.261Z,18.35
2022-08-30T06:27:56.575Z,18.46
2022-08-30T06:30:27.008Z,18.63
2022-08-30T06:32:57.176Z,18.90
2022-08-30T06:35:28.157Z,19.22
2022-08-30T06:37:58.733Z,19.25
2022-08-30T06:40:29.009Z,19.26
2022-08-30T06:43:01.793Z,19.56
2022-08-30T06:45:32.180Z,19.65
2022-08-30T06:48:02.419Z,19.65
2022-08-30T06:50:32.670Z,19.80
2022-08-30T06:53:06.020Z,20.13
2022-08-30T06:55:36.318Z,20.34
2022-08-30T06:58:09.126Z,20.50
2022-08-30T07:00:40.522Z,20.70
2022-08-30T07:03:10.750Z,21.09
2022-08-30T07:05:41.084Z,21.24
2022-08-30T07:08:11.225Z,21.41
2022-08-30T07:10:41.736Z,21.67
2022-08-30T07:13:15.468Z,22.00
2022-08-30T07:15:47.994Z,22.34
2022-08-30T07:18:30.864Z,22.57
2022-08-30T07:21:01.390Z,22.69
2022-08-30T07:23:31.325Z,22.74
2022-08-30T07:26:01.488Z,22.98
2022-08-30T07:28:34.507Z,23.27
2022-08-30T07:31:04.790Z,23.50
2022-08-30T07:33:35.142Z,23.81
2022-08-30T07:36:07.342Z,24.02
2022-08-30T07:38:38.072Z,24.34
2022-08-30T07:41:09.173Z,24.65
2022-08-30T07:43:42.104Z,25.06
2022-08-30T07:46:12.454Z,25.19
2022-08-30T07:48:44.256Z,25.11
2022-08-30T07:51:17.329Z,25.14
2022-08-30T07:53:47.820Z,25.12
2022-08-30T07:56:18.302Z,24.91
2022-08-30T07:58:51.400Z,24.80
2022-08-30T08:01:22.307Z,24.88
2022-08-30T08:03:53.144Z,25.25
2022-08-30T08:06:27.733Z,26.10
2022-08-30T08:09:04.778Z,27.10
2022-08-30T08:11:36.515Z,27.38
2022-08-30T08:14:09.579Z,27.56
2022-08-30T08:16:44.129Z,28.90
2022-08-30T08:19:14.465Z,29.81
2022-08-30T08:21:44.976Z,30.98
2022-08-30T08:24:15.282Z,32.07
2022-08-30T08:26:46.268Z,32.81
2022-08-30T08:29:19.318Z,33.42
2022-08-30T08:31:51.134Z,34.03
2022-08-30T08:34:23.486Z,34.68
2022-08-30T08:36:54.169Z,35.25
2022-08-30T08:39:24.504Z,35.75
2022-08-30T08:42:04.466Z,36.05
2022-08-30T08:44:54.685Z,36.47
2022-08-30T08:47:35.120Z,36.55
2022-08-30T08:50:09.455Z,37.01
2022-08-30T08:53:04.358Z,37.30
2022-08-30T08:55:35.993Z,37.19
2022-08-30T08:58:06.354Z,37.11
2022-08-30T09:00:39.241Z,37.07
2022-08-30T09:03:09.676Z,37.15
2022-08-30T09:05:43.881Z,37.09
2022-08-30T09:08:18.430Z,37.10
2022-08-30T09:10:58.582Z,37.41
2022-08-30T09:13:29.177Z,37.61
2022-08-30T09:16:03.197Z,37.76
2022-08-30T09:18:51.255Z,37.84
2022-08-30T09:21:28.913Z,37.63
2022-08-30T09:24:04.713Z,37.65
2022-08-30T09:26:38.123Z,37.74
2022-08-30T09:29:19.975Z,37.86
2022-08-30T09:32:25.122Z,37.06
2022-08-30T09:34:47.924Z,34.78
2022-08-30T09:37:34.442Z,35.97
2022-08-30T09:40:12.667Z,36.19
2022-08-30T09:42:43.291Z,35.52
2022-08-30T09:45:33.000Z,33.91
2022-08-30T09:48:25.184Z,32.72
2022-08-30T09:51:17.828Z,31.52
2022-08-30T09:56:58.120Z,35.05
2022-08-30T09:59:43.098Z,35.75
2022-08-30T10:02:35.510Z,35.06
2022-08-30T10:05:17.185Z,34.90
2022-08-30T10:08:01.828Z,35.84
2022-08-30T10:10:45.219Z,35.07
2022-08-30T10:13:40.469Z,36.21
2022-08-30T10:16:28.485Z,36.53
2022-08-30T10:19:12.230Z,37.15
2022-08-30T10:21:53.948Z,37.41
2022-08-30T10:24:33.311Z,37.00
2022-08-30T10:27:12.105Z,37.69
2022-08-30T10:29:50.635Z,38.18
2022-08-30T10:32:31.234Z,38.26
2022-08-30T10:35:09.241Z,38.47
2022-08-30T10:37:48.103Z,38.78
2022-08-30T10:40:42.767Z,38.67
2022-08-30T10:43:25.800Z,38.89
2022-08-30T10:46:03.111Z,39.00
2022-08-30T10:48:40.893Z,39.06
2022-08-30T10:51:21.338Z,38.96
2022-08-30T10:54:00.509Z,39.00
2022-08-30T10:56:33.176Z,37.57
2022-08-30T10:59:03.389Z,37.00
2022-08-30T11:01:53.264Z,37.97
2022-08-30T11:05:15.252Z,38.02
2022-08-30T11:07:56.608Z,36.95
2022-08-30T11:10:55.270Z,37.03
2022-08-30T11:13:29.872Z,35.93
2022-08-30T11:16:07.455Z,36.48
2022-08-30T11:18:51.209Z,36.36
2022-08-30T11:21:37.204Z,36.86
2022-08-30T11:24:12.145Z,36.36
2022-08-30T11:27:48.854Z,37.02
2022-08-30T11:30:52.838Z,36.31
2022-08-30T11:33:47.760Z,36.36
2022-08-30T11:37:03.560Z,37.06
2022-08-30T11:40:01.951Z,35.92
2022-08-30T11:46:19.221Z,35.36
2022-08-30T11:48:57.455Z,34.18
2022-08-30T11:52:23.663Z,33.43
2022-08-30T11:55:07.869Z,32.81
2022-08-30T11:57:49.860Z,32.45
2022-08-30T12:00:35.146Z,32.63
2022-08-30T12:03:08.647Z,35.25
2022-08-30T12:06:03.677Z,33.90
2022-08-30T12:09:02.586Z,34.42
2022-08-30T12:12:03.428Z,36.73
2022-08-30T12:14:55.018Z,37.89
2022-08-30T12:17:46.683Z,39.07
2022-08-30T12:20:26.608Z,39.74
2022-08-30T12:23:00.935Z,40.44
2022-08-30T12:25:35.743Z,41.31
2022-08-30T12:28:19.845Z,41.77
2022-08-30T12:30:54.199Z,39.94
2022-08-30T12:33:36.622Z,38.18
2022-08-30T12:36:26.859Z,38.71
2022-08-30T12:39:14.124Z,40.06
2022-08-30T12:41:45.303Z,40.78
2022-08-30T12:44:19.884Z,41.39
2022-08-30T12:46:58.971Z,42.04
2022-08-30T12:49:34.029Z,42.62
2022-08-30T12:52:21.339Z,42.01
2022-08-30T12:54:55.813Z,40.70
2022-08-30T12:57:43.902Z,41.06
2022-08-30T13:00:27.992Z,41.83
2022-08-30T13:03:01.095Z,41.05
2022-08-30T13:05:48.418Z,41.85
2022-08-30T13:08:25.458Z,42.61
2022-08-30T13:11:09.835Z,41.40
2022-08-30T13:13:44.277Z,41.01
2022-08-30T13:16:29.417Z,40.26
2022-08-30T13:19:37.167Z,39.01
2022-08-30T13:22:08.675Z,39.98
2022-08-30T13:24:38.855Z,41.07
2022-08-30T13:27:12.456Z,41.66
2022-08-30T13:29:42.769Z,42.06
2022-08-30T13:32:13.917Z,42.20
2022-08-30T13:34:44.090Z,42.45
2022-08-30T13:40:10.969Z,42.58
2022-08-30T13:42:44.245Z,42.73
2022-08-30T13:48:10.811Z,43.45
2022-08-30T13:50:41.255Z,43.57
2022-08-30T13:53:12.889Z,42.59
2022-08-30T13:55:45.542Z,40.12
2022-08-30T13:58:21.022Z,38.46
2022-08-30T14:00:52.766Z,37.53
2022-08-30T14:03:24.201Z,37.20
2022-08-30T14:06:21.924Z,36.18
2022-08-30T14:08:46.242Z,34.96
2022-08-30T14:11:23.719Z,34.19
2022-08-30T14:16:48.242Z,32.73
2022-08-30T14:19:19.658Z,32.16
2022-08-30T14:21:51.315Z,31.70
2022-08-30T14:24:22.164Z,31.34
2022-08-30T14:26:54.538Z,31.05
2022-08-30T14:29:30.035Z,30.75
2022-08-30T14:32:00.890Z,30.58
2022-08-30T14:34:31.670Z,30.43
2022-08-30T14:37:03.106Z,30.17
2022-08-30T14:39:33.373Z,29.91
2022-08-30T14:42:07.425Z,29.77
2022-08-30T14:44:55.604Z,29.57
2022-08-30T14:47:29.842Z,29.34
2022-08-30T14:50:02.035Z,29.20
2022-08-30T14:52:33.224Z,29.04
2022-08-30T14:55:08.999Z,28.92
2022-08-30T14:57:39.909Z,28.86
2022-08-30T15:00:16.126Z,28.85
2022-08-30T15:02:47.437Z,28.85
2022-08-30T15:05:19.226Z,28.83
2022-08-30T15:07:53.269Z,28.77
2022-08-30T15:10:24.307Z,28.76
2022-08-30T15:12:55.888Z,28.67
2022-08-30T15:15:29.144Z,28.69
2022-08-30T15:17:59.227Z,28.65
2022-08-30T15:20:29.368Z,28.56
2022-08-30T15:22:59.814Z,28.37
2022-08-30T15:25:30.217Z,28.26
2022-08-30T15:28:00.397Z,28.17
2022-08-30T15:30:33.587Z,28.17
2022-08-30T15:33:03.818Z,28.18
2022-08-30T15:35:34.094Z,28.18
2022-08-30T15:38:03.962Z,28.21
2022-08-30T15:40:35.318Z,28.98
2022-08-30T15:43:06.500Z,28.88
2022-08-30T15:45:39.832Z,28.91
2022-08-30T15:48:10.015Z,28.48
2022-08-30T15:50:40.382Z,28.08
2022-08-30T15:53:10.772Z,27.77
2022-08-30T15:55:41.019Z,27.52
2022-08-30T15:58:11.336Z,27.32
2022-08-30T16:00:45.665Z,27.15
2022-08-30T16:03:16.150Z,27.02
2022-08-30T16:05:50.379Z,26.85
2022-08-30T16:08:20.553Z,26.76
2022-08-30T16:10:51.950Z,26.72
2022-08-30T16:13:22.438Z,26.66
2022-08-30T16:15:56.116Z,26.59
2022-08-30T16:18:26.338Z,26.45
2022-08-30T16:21:07.117Z,26.33
2022-08-30T16:23:37.967Z,26.24
2022-08-30T16:26:09.269Z,26.13
2022-08-30T16:28:41.983Z,26.06
2022-08-30T16:31:19.570Z,25.98
2022-08-30T16:33:52.740Z,25.89
2022-08-30T16:36:24.072Z,25.81
2022-08-30T16:38:58.367Z,25.74
2022-08-30T16:41:28.950Z,25.68
2022-08-30T16:44:03.801Z,25.56
2022-08-30T16:46:41.205Z,25.54
2022-08-30T16:49:12.445Z,25.53
2022-08-30T16:51:42.815Z,25.48
2022-08-30T16:54:13.523Z,25.44
2022-08-30T16:56:43.797Z,25.37
2022-08-30T16:59:16.790Z,25.26
2022-08-30T17:01:49.723Z,25.23
2022-08-30T17:04:21.787Z,25.19
2022-08-30T17:06:52.748Z,25.17
2022-08-30T17:09:23.479Z,25.13
2022-08-30T17:11:53.738Z,25.10
2022-08-30T17:14:27.782Z,25.03
2022-08-30T17:17:03.041Z,25.01
2022-08-30T17:19:41.064Z,25.01
2022-08-30T17:22:12.284Z,24.95
2022-08-30T17:24:44.138Z,24.90
2022-08-30T17:27:14.352Z,24.86
2022-08-30T17:29:44.582Z,24.83
2022-08-30T17:32:17.590Z,24.81
2022-08-30T17:34:47.908Z,24.79
2022-08-30T17:37:20.391Z,24.73
2022-08-30T17:39:50.973Z,24.67
2022-08-30T17:42:21.255Z,24.61
2022-08-30T17:44:53.320Z,24.53
2022-08-30T17:47:26.806Z,24.47
2022-08-30T17:49:58.034Z,24.41
2022-08-30T17:52:29.428Z,24.38
2022-08-30T17:54:59.558Z,24.34
2022-08-30T17:57:29.902Z,24.27
2022-08-30T18:00:00.937Z,24.21
2022-08-30T18:02:33.822Z,24.14
2022-08-30T18:05:04.846Z,24.07
2022-08-30T18:07:35.155Z,24.00
2022-08-30T18:10:05.532Z,23.99
2022-08-30T18:12:35.760Z,23.92
2022-08-30T18:15:12.462Z,23.84
2022-08-30T18:17:49.239Z,23.78
2022-08-30T18:20:20.584Z,23.71
2022-08-30T18:22:52.560Z,23.64
2022-08-30T18:25:23.040Z,23.58
2022-08-30T18:27:58.322Z,23.53
2022-08-30T18:30:34.642Z,23.48
2022-08-30T18:33:12.826Z,23.44
2022-08-30T18:35:48.264Z,23.44
2022-08-30T18:38:18.909Z,23.43
2022-08-30T18:40:54.163Z,23.43
2022-08-30T18:43:30.625Z,23.40
2022-08-30T18:46:09.385Z,23.38
2022-08-30T18:48:42.861Z,23.36
2022-08-30T18:51:17.713Z,23.33
2022-08-30T18:53:50.090Z,23.35
2022-08-30T18:56:20.449Z,23.34
2022-08-30T18:58:52.774Z,23.33
2022-08-30T19:01:23.173Z,23.33
2022-08-30T19:03:56.471Z,23.33
2022-08-30T19:06:27.330Z,23.28
2022-08-30T19:08:57.712Z,23.26
2022-08-30T19:11:29.964Z,23.24
2022-08-30T19:14:00.074Z,23.21
2022-08-30T19:16:30.410Z,23.16
2022-08-30T19:19:04.109Z,23.14
2022-08-30T19:21:34.284Z,23.03
2022-08-30T19:24:05.238Z,22.98
2022-08-30T19:26:38.446Z,22.93
2022-08-30T19:29:09.165Z,22.90
2022-08-30T19:31:40.976Z,22.83
2022-08-30T19:34:14.317Z,22.76
2022-08-30T19:36:44.995Z,22.70
2022-08-30T19:39:15.542Z,22.60
2022-08-30T19:41:47.708Z,22.54
2022-08-30T19:44:18.047Z,22.50
2022-08-30T19:46:48.246Z,22.42
2022-08-30T19:49:21.265Z,22.44
2022-08-30T19:51:52.030Z,22.41
2022-08-30T19:54:22.731Z,22.32
2022-08-30T19:56:52.757Z,22.21
2022-08-30T19:59:23.622Z,22.18
2022-08-30T20:01:53.863Z,22.09
2022-08-30T20:04:26.951Z,21.99
2022-08-30T20:06:57.576Z,21.92
2022-08-30T20:09:27.867Z,21.82
2022-08-30T20:11:59.028Z,21.79
2022-08-30T20:14:29.612Z,21.75
2022-08-30T20:17:02.306Z,21.70
2022-08-30T20:19:35.418Z,21.63
2022-08-30T20:22:08.356Z,21.55
2022-08-30T20:24:43.877Z,21.46
2022-08-30T20:27:14.670Z,21.42
2022-08-30T20:29:45.269Z,21.39
2022-08-30T20:32:15.847Z,21.35
2022-08-30T20:34:48.377Z,21.28
2022-08-30T20:37:21.991Z,21.24
2022-08-30T20:39:52.620Z,21.18
2022-08-30T20:42:22.566Z,21.14
2022-08-30T20:44:52.875Z,21.15
2022-08-30T20:47:23.262Z,21.11
2022-08-30T20:49:56.220Z,21.09
2022-08-30T20:52:26.483Z,21.05
2022-08-30T20:54:56.582Z,21.00
2022-08-30T20:57:27.094Z,20.95
2022-08-30T20:59:57.249Z,20.93
2022-08-30T21:02:29.961Z,20.90
2022-08-30T21:05:02.768Z,20.88
2022-08-30T21:07:33.327Z,20.83
2022-08-30T21:10:03.822Z,20.81
2022-08-30T21:12:34.530Z,20.77
2022-08-30T21:15:26.951Z,20.72
2022-08-30T21:17:55.410Z,20.74
2022-08-30T21:20:28.190Z,20.75
2022-08-30T21:22:58.834Z,20.74
2022-08-30T21:25:28.755Z,20.70
2022-08-30T21:27:58.885Z,20.68
2022-08-30T21:30:29.503Z,20.68
2022-08-30T21:33:00.082Z,20.66
2022-08-30T21:35:46.097Z,20.61
2022-08-30T21:38:16.383Z,20.55
2022-08-30T21:40:48.648Z,20.55
2022-08-30T21:43:19.487Z,20.53
2022-08-30T21:45:51.445Z,20.50
2022-08-30T21:48:21.677Z,20.48
2022-08-30T21:50:55.746Z,20.47
2022-08-30T21:53:26.174Z,20.43
2022-08-30T21:55:56.300Z,20.39
2022-08-30T21:58:26.486Z,20.39
2022-08-30T22:00:57.206Z,20.34
2022-08-30T22:03:28.131Z,20.25
2022-08-30T22:06:01.906Z,20.24
2022-08-30T22:08:32.478Z,20.18
2022-08-30T22:11:03.163Z,20.17
2022-08-30T22:13:33.371Z,20.08
2022-08-30T22:16:03.581Z,19.98
2022-08-30T22:18:34.005Z,19.97
2022-08-30T22:21:08.250Z,19.94
2022-08-30T22:23:38.973Z,19.87
2022-08-30T22:26:10.690Z,19.81
2022-08-30T22:28:41.426Z,19.80
2022-08-30T22:31:13.500Z,19.75
2022-08-30T22:33:44.428Z,19.69
2022-08-30T22:36:21.423Z,19.64
2022-08-30T22:38:54.377Z,19.60
2022-08-30T22:41:31.044Z,19.56
2022-08-30T22:44:01.753Z,19.53
2022-08-30T22:46:34.317Z,19.50
2022-08-30T22:49:06.255Z,19.47
2022-08-30T22:51:40.530Z,19.48
2022-08-30T22:54:12.445Z,19.45
2022-08-30T22:56:43.098Z,19.39
2022-08-30T22:59:13.340Z,19.37
2022-08-30T23:01:47.148Z,19.30
2022-08-30T23:04:17.532Z,19.28
2022-08-30T23:06:50.524Z,19.21
2022-08-30T23:09:20.990Z,19.11
2022-08-30T23:11:51.266Z,19.07
2022-08-30T23:14:21.512Z,19.00
2022-08-30T23:16:51.725Z,18.93
2022-08-30T23:19:23.736Z,18.89
2022-08-30T23:21:56.676Z,18.84
2022-08-30T23:24:39.401Z,18.82
2022-08-30T23:27:22.050Z,18.76
2022-08-30T23:30:04.726Z,18.73
2022-08-30T23:32:47.970Z,18.73
2022-08-30T23:35:30.637Z,18.68
2022-08-30T23:38:20.340Z,18.63
2022-08-30T23:41:03.117Z,18.61
2022-08-30T23:43:45.869Z,18.61
2022-08-30T23:46:30.053Z,18.60
2022-08-30T23:49:12.731Z,18.58
2022-08-30T23:51:55.272Z,18.52
2022-08-30T23:54:40.767Z,18.45
2022-08-30T23:57:23.950Z,18.44
